sensor_id;sensor_type;location;lat;lon;timestamp;pressure;altitude;pressure_sealevel;temperature;humidity
26859;BME280;14429;48.346;16.338;2023-07-08T00:00:53;100241.38;;;28.03;40.51
26859;BME280;14429;48.346;16.338;2023-07-08T00:03:19;100248.38;;;28.05;40.57
26859;BME280;14429;48.346;16.338;2023-07-08T00:05:48;100239.88;;;28.00;40.52
26859;BME280;14429;48.346;16.338;2023-07-08T00:08:17;100242.22;;;28.03;40.62
26859;BME280;14429;48.346;16.338;2023-07-08T00:10:43;100242.63;;;28.00;40.38
26859;BME280;14429;48.346;16.338;2023-07-08T00:13:09;100256.09;;;27.95;40.48
26859;BME280;14429;48.346;16.338;2023-07-08T00:15:35;100260.81;;;28.01;40.47
26859;BME280;14429;48.346;16.338;2023-07-08T00:18:10;100256.78;;;27.97;40.38
26859;BME280;14429;48.346;16.338;2023-07-08T00:20:38;100253.81;;;27.99;40.58
26859;BME280;14429;48.346;16.338;2023-07-08T00:23:05;100252.97;;;27.98;40.29
26859;BME280;14429;48.346;16.338;2023-07-08T00:25:32;100253.81;;;27.72;39.48
26859;BME280;14429;48.346;16.338;2023-07-08T00:27:57;100258.91;;;27.75;40.83
26859;BME280;14429;48.346;16.338;2023-07-08T00:30:25;100260.78;;;27.74;40.75
26859;BME280;14429;48.346;16.338;2023-07-08T00:32:51;100258.34;;;27.86;40.66
26859;BME280;14429;48.346;16.338;2023-07-08T00:35:17;100259.66;;;27.90;40.66
26859;BME280;14429;48.346;16.338;2023-07-08T00:37:42;100251.69;;;27.94;40.47
26859;BME280;14429;48.346;16.338;2023-07-08T00:40:15;100250.38;;;27.90;40.66
26859;BME280;14429;48.346;16.338;2023-07-08T00:42:42;100255.88;;;27.90;40.53
26859;BME280;14429;48.346;16.338;2023-07-08T00:45:18;100252.47;;;27.89;40.74
26859;BME280;14429;48.346;16.338;2023-07-08T00:47:46;100248.34;;;27.10;37.67
26859;BME280;14429;48.346;16.338;2023-07-08T00:50:11;100253.03;;;27.57;41.27
26859;BME280;14429;48.346;16.338;2023-07-08T00:52:37;100243.44;;;27.67;41.03
26859;BME280;14429;48.346;16.338;2023-07-08T00:55:05;100230.81;;;27.73;40.62
26859;BME280;14429;48.346;16.338;2023-07-08T00:57:38;100241.31;;;27.69;41.13
26859;BME280;14429;48.346;16.338;2023-07-08T01:00:06;100237.34;;;27.45;41.39
26859;BME280;14429;48.346;16.338;2023-07-08T01:02:34;100244.16;;;27.55;41.27
26859;BME280;14429;48.346;16.338;2023-07-08T01:05:05;100238.09;;;27.60;41.19
26859;BME280;14429;48.346;16.338;2023-07-08T01:07:32;100240.19;;;27.58;41.19
26859;BME280;14429;48.346;16.338;2023-07-08T01:10:04;100245.28;;;27.61;41.10
26859;BME280;14429;48.346;16.338;2023-07-08T01:12:36;100236.06;;;27.68;40.97
26859;BME280;14429;48.346;16.338;2023-07-08T01:15:04;100236.28;;;27.73;40.73
26859;BME280;14429;48.346;16.338;2023-07-08T01:17:30;100227.88;;;27.74;40.59
26859;BME280;14429;48.346;16.338;2023-07-08T01:19:55;100238.72;;;27.62;40.79
26859;BME280;14429;48.346;16.338;2023-07-08T01:22:22;100239.19;;;27.65;40.95
26859;BME280;14429;48.346;16.338;2023-07-08T01:24:48;100235.91;;;27.49;40.92
26859;BME280;14429;48.346;16.338;2023-07-08T01:27:15;100233.84;;;27.57;41.27
26859;BME280;14429;48.346;16.338;2023-07-08T01:29:41;100228.59;;;27.62;40.76
26859;BME280;14429;48.346;16.338;2023-07-08T01:32:11;100218.94;;;27.66;40.84
26859;BME280;14429;48.346;16.338;2023-07-08T01:34:37;100218.47;;;27.62;41.03
26859;BME280;14429;48.346;16.338;2023-07-08T01:37:04;100229.38;;;27.50;41.23
26859;BME280;14429;48.346;16.338;2023-07-08T01:39:32;100236.19;;;26.28;37.92
26859;BME280;14429;48.346;16.338;2023-07-08T01:41:58;100234.50;;;26.77;42.77
26859;BME280;14429;48.346;16.338;2023-07-08T01:44:28;100225.59;;;27.09;41.95
26859;BME280;14429;48.346;16.338;2023-07-08T01:46:56;100219.78;;;27.19;41.65
26859;BME280;14429;48.346;16.338;2023-07-08T01:49:23;100216.63;;;27.22;41.74
26859;BME280;14429;48.346;16.338;2023-07-08T01:51:49;100214.81;;;27.29;41.67
26859;BME280;14429;48.346;16.338;2023-07-08T01:54:15;100210.38;;;27.28;41.58
26859;BME280;14429;48.346;16.338;2023-07-08T01:56:42;100208.97;;;27.32;41.60
26859;BME280;14429;48.346;16.338;2023-07-08T01:59:08;100203.88;;;27.29;41.58
26859;BME280;14429;48.346;16.338;2023-07-08T02:01:33;100209.03;;;27.38;41.60
26859;BME280;14429;48.346;16.338;2023-07-08T02:03:58;100211.56;;;27.39;41.19
26859;BME280;14429;48.346;16.338;2023-07-08T02:06:24;100204.44;;;27.45;41.23
26859;BME280;14429;48.346;16.338;2023-07-08T02:08:49;100192.22;;;27.47;41.06
26859;BME280;14429;48.346;16.338;2023-07-08T02:11:15;100200.25;;;27.49;41.13
26859;BME280;14429;48.346;16.338;2023-07-08T02:13:42;100193.94;;;27.48;41.21
26859;BME280;14429;48.346;16.338;2023-07-08T02:16:07;100196.69;;;27.48;41.25
26859;BME280;14429;48.346;16.338;2023-07-08T02:18:32;100200.03;;;27.50;41.02
26859;BME280;14429;48.346;16.338;2023-07-08T02:20:58;100206.97;;;27.46;41.10
26859;BME280;14429;48.346;16.338;2023-07-08T02:23:24;100206.53;;;27.43;41.14
26859;BME280;14429;48.346;16.338;2023-07-08T02:25:50;100198.09;;;27.44;40.91
26859;BME280;14429;48.346;16.338;2023-07-08T02:28:16;100190.53;;;27.46;41.08
26859;BME280;14429;48.346;16.338;2023-07-08T02:30:42;100190.13;;;27.49;41.03
26859;BME280;14429;48.346;16.338;2023-07-08T02:33:08;100180.78;;;27.44;40.94
26859;BME280;14429;48.346;16.338;2023-07-08T02:35:33;100185.44;;;27.43;41.21
26859;BME280;14429;48.346;16.338;2023-07-08T02:37:59;100186.69;;;27.41;41.04
26859;BME280;14429;48.346;16.338;2023-07-08T02:40:25;100185.44;;;27.43;41.04
26859;BME280;14429;48.346;16.338;2023-07-08T02:42:50;100175.53;;;27.42;41.10
26859;BME280;14429;48.346;16.338;2023-07-08T02:45:17;100179.94;;;27.43;40.96
26859;BME280;14429;48.346;16.338;2023-07-08T02:47:44;100181.63;;;27.44;40.89
26859;BME280;14429;48.346;16.338;2023-07-08T02:50:10;100182.06;;;27.41;41.14
26859;BME280;14429;48.346;16.338;2023-07-08T02:52:36;100180.34;;;27.40;40.92
26859;BME280;14429;48.346;16.338;2023-07-08T02:55:02;100184.97;;;27.40;41.04
26859;BME280;14429;48.346;16.338;2023-07-08T02:57:27;100184.97;;;27.40;40.99
26859;BME280;14429;48.346;16.338;2023-07-08T02:59:53;100184.13;;;27.39;41.01
26859;BME280;14429;48.346;16.338;2023-07-08T03:02:18;100193.41;;;27.38;41.06
26859;BME280;14429;48.346;16.338;2023-07-08T03:04:45;100189.63;;;27.39;40.88
26859;BME280;14429;48.346;16.338;2023-07-08T03:07:11;100195.09;;;27.39;41.00
26859;BME280;14429;48.346;16.338;2023-07-08T03:09:36;100194.19;;;27.33;40.78
26859;BME280;14429;48.346;16.338;2023-07-08T03:12:01;100190.44;;;27.34;40.70
26859;BME280;14429;48.346;16.338;2023-07-08T03:14:27;100195.66;;;27.29;41.13
26859;BME280;14429;48.346;16.338;2023-07-08T03:16:52;100188.25;;;27.29;41.15
26859;BME280;14429;48.346;16.338;2023-07-08T03:19:18;100195.03;;;27.33;40.92
26859;BME280;14429;48.346;16.338;2023-07-08T03:21:44;100195.91;;;27.34;41.07
26859;BME280;14429;48.346;16.338;2023-07-08T03:24:10;100193.19;;;27.34;41.01
26859;BME280;14429;48.346;16.338;2023-07-08T03:26:36;100195.25;;;27.32;40.99
26859;BME280;14429;48.346;16.338;2023-07-08T03:29:02;100212.75;;;27.31;41.03
26859;BME280;14429;48.346;16.338;2023-07-08T03:31:27;100205.75;;;27.28;40.94
26859;BME280;14429;48.346;16.338;2023-07-08T03:33:53;100204.53;;;27.31;41.04
26859;BME280;14429;48.346;16.338;2023-07-08T03:36:19;100205.59;;;27.30;41.03
26859;BME280;14429;48.346;16.338;2023-07-08T03:38:46;100212.34;;;27.13;40.98
26859;BME280;14429;48.346;16.338;2023-07-08T03:41:11;100212.59;;;27.18;41.14
26859;BME280;14429;48.346;16.338;2023-07-08T03:43:36;100217.81;;;26.72;41.22
26859;BME280;14429;48.346;16.338;2023-07-08T03:46:02;100214.16;;;27.06;41.48
26859;BME280;14429;48.346;16.338;2023-07-08T03:48:27;100221.75;;;27.04;41.45
26859;BME280;14429;48.346;16.338;2023-07-08T03:50:53;100231.72;;;26.07;37.45
26859;BME280;14429;48.346;16.338;2023-07-08T03:53:18;100226.41;;;26.69;41.23
26859;BME280;14429;48.346;16.338;2023-07-08T03:55:45;100224.56;;;26.90;41.82
26859;BME280;14429;48.346;16.338;2023-07-08T03:58:10;100230.16;;;27.03;41.54
26859;BME280;14429;48.346;16.338;2023-07-08T04:00:36;100229.75;;;27.06;41.52
26859;BME280;14429;48.346;16.338;2023-07-08T04:03:01;100236.47;;;27.03;41.50
26859;BME280;14429;48.346;16.338;2023-07-08T04:05:26;100228.53;;;27.08;41.30
26859;BME280;14429;48.346;16.338;2023-07-08T04:07:53;100229.16;;;27.10;41.28
26859;BME280;14429;48.346;16.338;2023-07-08T04:10:19;100228.13;;;27.11;41.20
26859;BME280;14429;48.346;16.338;2023-07-08T04:12:45;100228.13;;;27.11;41.22
26859;BME280;14429;48.346;16.338;2023-07-08T04:15:11;100235.25;;;27.06;41.04
26859;BME280;14429;48.346;16.338;2023-07-08T04:17:41;100230.34;;;26.80;41.78
26859;BME280;14429;48.346;16.338;2023-07-08T04:20:08;100240.53;;;26.37;38.87
26859;BME280;14429;48.346;16.338;2023-07-08T04:22:33;100237.56;;;26.53;39.84
26859;BME280;14429;48.346;16.338;2023-07-08T04:24:59;100236.94;;;26.86;41.65
26859;BME280;14429;48.346;16.338;2023-07-08T04:27:24;100238.41;;;26.88;41.70
26859;BME280;14429;48.346;16.338;2023-07-08T04:29:51;100246.94;;;26.93;41.39
26859;BME280;14429;48.346;16.338;2023-07-08T04:32:16;100245.28;;;26.99;40.20
26859;BME280;14429;48.346;16.338;2023-07-08T04:34:42;100246.28;;;27.12;41.33
26859;BME280;14429;48.346;16.338;2023-07-08T04:37:08;100243.53;;;27.33;40.80
26859;BME280;14429;48.346;16.338;2023-07-08T04:39:36;100245.16;;;27.48;40.48
26859;BME280;14429;48.346;16.338;2023-07-08T04:42:01;100252.00;;;27.58;40.37
26859;BME280;14429;48.346;16.338;2023-07-08T04:44:26;100243.88;;;27.71;39.74
26859;BME280;14429;48.346;16.338;2023-07-08T04:46:55;100245.03;;;27.83;39.47
26859;BME280;14429;48.346;16.338;2023-07-08T04:49:22;100244.91;;;27.90;39.23
26859;BME280;14429;48.346;16.338;2023-07-08T04:51:47;100247.47;;;27.98;39.03
26859;BME280;14429;48.346;16.338;2023-07-08T04:54:13;100243.50;;;28.07;39.00
26859;BME280;14429;48.346;16.338;2023-07-08T04:56:40;100242.09;;;28.17;38.64
26859;BME280;14429;48.346;16.338;2023-07-08T04:59:08;100244.22;;;28.22;38.69
26859;BME280;14429;48.346;16.338;2023-07-08T05:01:34;100241.75;;;28.27;38.57
26859;BME280;14429;48.346;16.338;2023-07-08T05:04:02;100242.19;;;28.37;38.24
26859;BME280;14429;48.346;16.338;2023-07-08T05:06:28;100242.06;;;28.44;38.29
26859;BME280;14429;48.346;16.338;2023-07-08T05:08:54;100241.88;;;28.46;38.03
26859;BME280;14429;48.346;16.338;2023-07-08T05:11:19;100243.59;;;28.60;37.58
26859;BME280;14429;48.346;16.338;2023-07-08T05:13:45;100245.31;;;28.67;37.95
26859;BME280;14429;48.346;16.338;2023-07-08T05:16:10;100241.94;;;28.65;37.64
26859;BME280;14429;48.346;16.338;2023-07-08T05:18:35;100237.75;;;28.75;37.03
26859;BME280;14429;48.346;16.338;2023-07-08T05:21:03;100237.75;;;28.82;37.28
26859;BME280;14429;48.346;16.338;2023-07-08T05:23:28;100240.31;;;28.90;33.42
26859;BME280;14429;48.346;16.338;2023-07-08T05:25:54;100241.84;;;28.98;33.91
26859;BME280;14429;48.346;16.338;2023-07-08T05:28:19;100237.84;;;29.07;36.34
26859;BME280;14429;48.346;16.338;2023-07-08T05:30:44;100243.91;;;28.84;31.52
26859;BME280;14429;48.346;16.338;2023-07-08T05:33:10;100241.66;;;29.06;33.98
26859;BME280;14429;48.346;16.338;2023-07-08T05:35:35;100239.53;;;29.08;36.11
26859;BME280;14429;48.346;16.338;2023-07-08T05:38:02;100237.66;;;29.02;36.66
26859;BME280;14429;48.346;16.338;2023-07-08T05:40:28;100234.91;;;29.09;36.41
26859;BME280;14429;48.346;16.338;2023-07-08T05:42:53;100239.13;;;29.11;34.54
26859;BME280;14429;48.346;16.338;2023-07-08T05:45:18;100243.38;;;29.20;35.39
26859;BME280;14429;48.346;16.338;2023-07-08T05:47:44;100235.34;;;29.25;33.03
26859;BME280;14429;48.346;16.338;2023-07-08T05:50:09;100231.97;;;29.17;35.92
26859;BME280;14429;48.346;16.338;2023-07-08T05:52:35;100236.19;;;29.13;33.22
26859;BME280;14429;48.346;16.338;2023-07-08T05:55:01;100232.81;;;29.24;31.36
26859;BME280;14429;48.346;16.338;2023-07-08T05:57:27;100228.59;;;29.40;33.97
26859;BME280;14429;48.346;16.338;2023-07-08T05:59:52;100229.41;;;29.34;35.61
26859;BME280;14429;48.346;16.338;2023-07-08T06:02:18;100239.16;;;29.37;35.92
26859;BME280;14429;48.346;16.338;2023-07-08T06:04:43;100220.56;;;29.32;35.20
26859;BME280;14429;48.346;16.338;2023-07-08T06:07:09;100222.22;;;29.33;35.46
26859;BME280;14429;48.346;16.338;2023-07-08T06:09:34;100226.88;;;29.14;36.56
26859;BME280;14429;48.346;16.338;2023-07-08T06:12:01;100218.22;;;29.17;36.45
26859;BME280;14429;48.346;16.338;2023-07-08T06:14:28;100225.00;;;29.40;32.82
26859;BME280;14429;48.346;16.338;2023-07-08T06:16:53;100223.91;;;29.34;36.13
26859;BME280;14429;48.346;16.338;2023-07-08T06:19:19;100224.34;;;29.19;36.34
26859;BME280;14429;48.346;16.338;2023-07-08T06:21:44;100222.66;;;29.24;36.27
26859;BME280;14429;48.346;16.338;2023-07-08T06:24:09;100223.91;;;29.15;36.48
26859;BME280;14429;48.346;16.338;2023-07-08T06:26:35;100218.03;;;29.31;35.97
26859;BME280;14429;48.346;16.338;2023-07-08T06:29:02;100225.81;;;29.21;33.09
26859;BME280;14429;48.346;16.338;2023-07-08T06:31:28;100224.34;;;29.38;35.75
26859;BME280;14429;48.346;16.338;2023-07-08T06:33:53;100220.97;;;29.29;36.30
26859;BME280;14429;48.346;16.338;2023-07-08T06:36:19;100227.34;;;29.43;36.05
26859;BME280;14429;48.346;16.338;2023-07-08T06:38:44;100225.63;;;29.54;34.79
26859;BME280;14429;48.346;16.338;2023-07-08T06:41:10;100210.41;;;29.71;34.44
26859;BME280;14429;48.346;16.338;2023-07-08T06:43:35;100210.84;;;29.68;35.11
26859;BME280;14429;48.346;16.338;2023-07-08T06:46:02;100206.38;;;29.80;34.48
26859;BME280;14429;48.346;16.338;2023-07-08T06:48:27;100209.97;;;29.49;35.45
26859;BME280;14429;48.346;16.338;2023-07-08T06:50:53;100209.13;;;29.48;35.85
26859;BME280;14429;48.346;16.338;2023-07-08T06:53:18;100203.19;;;29.06;36.68
26859;BME280;14429;48.346;16.338;2023-07-08T06:55:44;100205.75;;;29.27;36.27
26859;BME280;14429;48.346;16.338;2023-07-08T06:58:09;100201.06;;;29.34;35.72
26859;BME280;14429;48.346;16.338;2023-07-08T07:00:35;100194.06;;;31.31;30.06
26859;BME280;14429;48.346;16.338;2023-07-08T07:03:02;100193.78;;;30.22;34.49
26859;BME280;14429;48.346;16.338;2023-07-08T07:05:27;100199.78;;;29.94;33.79
26859;BME280;14429;48.346;16.338;2023-07-08T07:07:53;100198.34;;;29.72;35.47
26859;BME280;14429;48.346;16.338;2023-07-08T07:10:18;100198.09;;;29.93;31.45
26859;BME280;14429;48.346;16.338;2023-07-08T07:12:44;100197.22;;;30.11;34.07
26859;BME280;14429;48.346;16.338;2023-07-08T07:15:09;100201.47;;;30.63;31.13
26859;BME280;14429;48.346;16.338;2023-07-08T07:17:35;100205.16;;;30.45;33.50
26859;BME280;14429;48.346;16.338;2023-07-08T07:20:02;100206.41;;;30.49;33.96
26859;BME280;14429;48.346;16.338;2023-07-08T07:22:27;100197.13;;;30.37;34.01
26859;BME280;14429;48.346;16.338;2023-07-08T07:24:53;100203.56;;;30.06;34.38
26859;BME280;14429;48.346;16.338;2023-07-08T07:27:18;100200.84;;;29.99;32.97
26859;BME280;14429;48.346;16.338;2023-07-08T07:29:45;100207.88;;;29.76;33.17
26859;BME280;14429;48.346;16.338;2023-07-08T07:32:11;100203.22;;;29.32;35.83
26859;BME280;14429;48.346;16.338;2023-07-08T07:34:37;100203.84;;;29.27;35.87
26859;BME280;14429;48.346;16.338;2023-07-08T07:37:05;100204.88;;;29.26;34.55
26859;BME280;14429;48.346;16.338;2023-07-08T07:39:30;100193.28;;;29.31;34.75
26859;BME280;14429;48.346;16.338;2023-07-08T07:41:56;100194.94;;;29.13;33.44
26859;BME280;14429;48.346;16.338;2023-07-08T07:44:21;100206.72;;;28.94;34.15
26859;BME280;14429;48.346;16.338;2023-07-08T07:46:46;100208.94;;;28.59;34.60
26859;BME280;14429;48.346;16.338;2023-07-08T07:49:12;100204.75;;;28.69;36.12
26859;BME280;14429;48.346;16.338;2023-07-08T07:51:38;100212.16;;;28.69;36.87
26859;BME280;14429;48.346;16.338;2023-07-08T07:54:04;100205.31;;;28.45;35.05
26859;BME280;14429;48.346;16.338;2023-07-08T07:56:30;100214.44;;;28.59;35.55
26859;BME280;14429;48.346;16.338;2023-07-08T07:58:55;100209.13;;;28.51;36.51
26859;BME280;14429;48.346;16.338;2023-07-08T08:01:21;100207.34;;;28.31;35.67
26859;BME280;14429;48.346;16.338;2023-07-08T08:03:46;100207.09;;;28.26;35.78
26859;BME280;14429;48.346;16.338;2023-07-08T08:06:11;100210.75;;;27.99;36.03
26859;BME280;14429;48.346;16.338;2023-07-08T08:08:37;100205.75;;;28.09;36.77
26859;BME280;14429;48.346;16.338;2023-07-08T08:11:04;100214.22;;;28.14;36.00
26859;BME280;14429;48.346;16.338;2023-07-08T08:13:29;100210.00;;;28.18;37.12
26859;BME280;14429;48.346;16.338;2023-07-08T08:15:58;100209.69;;;27.94;37.75
26859;BME280;14429;48.346;16.338;2023-07-08T08:18:23;100205.75;;;28.09;36.40
26859;BME280;14429;48.346;16.338;2023-07-08T08:20:50;100208.72;;;28.14;37.09
26859;BME280;14429;48.346;16.338;2023-07-08T08:23:15;100200.66;;;28.06;38.32
26859;BME280;14429;48.346;16.338;2023-07-08T08:25:41;100197.91;;;28.06;38.35
26859;BME280;14429;48.346;16.338;2023-07-08T08:28:08;100200.66;;;28.06;37.58
26859;BME280;14429;48.346;16.338;2023-07-08T08:30:33;100203.19;;;28.01;37.16
26859;BME280;14429;48.346;16.338;2023-07-08T08:32:59;100205.31;;;28.06;38.10
26859;BME280;14429;48.346;16.338;2023-07-08T08:35:25;100204.19;;;28.00;35.53
26859;BME280;14429;48.346;16.338;2023-07-08T08:37:51;100192.66;;;28.11;38.31
26859;BME280;14429;48.346;16.338;2023-07-08T08:40:18;100199.81;;;28.06;38.46
26859;BME280;14429;48.346;16.338;2023-07-08T08:42:45;100192.66;;;28.11;35.46
26859;BME280;14429;48.346;16.338;2023-07-08T08:45:16;100200.03;;;28.04;34.68
26859;BME280;14429;48.346;16.338;2023-07-08T08:47:44;100206.56;;;28.03;36.15
26859;BME280;14429;48.346;16.338;2023-07-08T08:50:22;100199.38;;;28.02;37.17
26859;BME280;14429;48.346;16.338;2023-07-08T08:52:49;100200.44;;;28.08;37.37
26859;BME280;14429;48.346;16.338;2023-07-08T08:55:15;100190.59;;;28.19;38.34
26859;BME280;14429;48.346;16.338;2023-07-08T08:57:45;100195.56;;;28.03;35.47
26859;BME280;14429;48.346;16.338;2023-07-08T09:00:21;100188.03;;;28.12;35.43
26859;BME280;14429;48.346;16.338;2023-07-08T09:02:55;100191.88;;;28.23;38.07
26859;BME280;14429;48.346;16.338;2023-07-08T09:05:22;100182.19;;;28.27;38.07
26859;BME280;14429;48.346;16.338;2023-07-08T09:08:00;100169.09;;;28.29;35.05
26859;BME280;14429;48.346;16.338;2023-07-08T09:10:35;100170.41;;;28.40;37.21
26859;BME280;14429;48.346;16.338;2023-07-08T09:13:06;100177.88;;;28.52;34.51
26859;BME280;14429;48.346;16.338;2023-07-08T09:15:34;100167.50;;;28.47;33.26
26859;BME280;14429;48.346;16.338;2023-07-08T09:18:04;100167.50;;;28.47;35.48
26859;BME280;14429;48.346;16.338;2023-07-08T09:20:37;100166.72;;;28.66;35.12
26859;BME280;14429;48.346;16.338;2023-07-08T09:23:19;100158.25;;;28.61;31.94
26859;BME280;14429;48.346;16.338;2023-07-08T09:25:50;100161.63;;;28.63;32.27
26859;BME280;14429;48.346;16.338;2023-07-08T09:28:18;100166.13;;;28.83;35.21
26859;BME280;14429;48.346;16.338;2023-07-08T09:30:47;100159.56;;;28.72;37.51
26859;BME280;14429;48.346;16.338;2023-07-08T09:33:13;100156.13;;;28.63;31.83
26859;BME280;14429;48.346;16.338;2023-07-08T09:35:40;100144.78;;;28.79;32.63
26859;BME280;14429;48.346;16.338;2023-07-08T09:38:07;100153.88;;;28.79;35.64
26859;BME280;14429;48.346;16.338;2023-07-08T09:40:33;100145.63;;;28.79;34.41
26859;BME280;14429;48.346;16.338;2023-07-08T09:43:02;100146.06;;;28.83;31.10
26859;BME280;14429;48.346;16.338;2023-07-08T09:45:29;100146.88;;;28.83;35.00
26859;BME280;14429;48.346;16.338;2023-07-08T09:47:56;100138.00;;;28.81;36.32
26859;BME280;14429;48.346;16.338;2023-07-08T09:50:23;100136.31;;;28.99;31.24
26859;BME280;14429;48.346;16.338;2023-07-08T09:52:55;100145.66;;;29.11;31.04
26859;BME280;14429;48.346;16.338;2023-07-08T09:55:21;100139.91;;;28.87;37.12
26859;BME280;14429;48.346;16.338;2023-07-08T09:57:49;100141.19;;;28.91;29.92
26859;BME280;14429;48.346;16.338;2023-07-08T10:00:17;100140.56;;;28.83;31.77
26859;BME280;14429;48.346;16.338;2023-07-08T10:02:45;100135.91;;;28.96;30.38
26859;BME280;14429;48.346;16.338;2023-07-08T10:05:17;100139.47;;;28.97;35.34
26859;BME280;14429;48.346;16.338;2023-07-08T10:07:44;100130.84;;;28.87;30.80
26859;BME280;14429;48.346;16.338;2023-07-08T10:10:12;100125.09;;;28.82;28.93
26859;BME280;14429;48.346;16.338;2023-07-08T10:12:40;100128.28;;;28.85;30.28
26859;BME280;14429;48.346;16.338;2023-07-08T10:15:18;100132.94;;;28.85;31.23
26859;BME280;14429;48.346;16.338;2023-07-08T10:17:47;100130.44;;;29.02;31.13
26859;BME280;14429;48.346;16.338;2023-07-08T10:20:14;100127.88;;;28.95;30.28
26859;BME280;14429;48.346;16.338;2023-07-08T10:22:47;100125.13;;;28.95;29.90
26859;BME280;14429;48.346;16.338;2023-07-08T10:25:26;100115.88;;;29.02;31.14
26859;BME280;14429;48.346;16.338;2023-07-08T10:27:57;100123.66;;;28.98;30.58
26859;BME280;14429;48.346;16.338;2023-07-08T10:30:32;100120.91;;;28.98;30.64
26859;BME280;14429;48.346;16.338;2023-07-08T10:33:13;100118.19;;;29.05;29.75
26859;BME280;14429;48.346;16.338;2023-07-08T10:35:50;100118.97;;;28.93;29.89
26859;BME280;14429;48.346;16.338;2023-07-08T10:38:34;100109.69;;;29.00;32.22
26859;BME280;14429;48.346;16.338;2023-07-08T10:41:09;100109.69;;;29.00;28.67
26859;BME280;14429;48.346;16.338;2023-07-08T10:43:46;100121.31;;;28.96;33.92
26859;BME280;14429;48.346;16.338;2023-07-08T10:46:24;100120.72;;;29.06;33.62
26859;BME280;14429;48.346;16.338;2023-07-08T10:49:18;100109.31;;;29.09;33.69
26859;BME280;14429;48.346;16.338;2023-07-08T10:51:50;100113.53;;;29.05;29.32
26859;BME280;14429;48.346;16.338;2023-07-08T10:54:30;100104.22;;;29.06;31.30
26859;BME280;14429;48.346;16.338;2023-07-08T10:57:06;100098.28;;;29.16;29.94
26859;BME280;14429;48.346;16.338;2023-07-08T10:59:46;100109.72;;;29.32;29.35
26859;BME280;14429;48.346;16.338;2023-07-08T11:02:37;100094.66;;;29.34;28.54
26859;BME280;14429;48.346;16.338;2023-07-08T11:05:16;100098.31;;;29.09;36.37
26859;BME280;14429;48.346;16.338;2023-07-08T11:07:48;100081.75;;;29.48;29.60
26859;BME280;14429;48.346;16.338;2023-07-08T11:10:21;100083.94;;;29.20;30.87
26859;BME280;14429;48.346;16.338;2023-07-08T11:12:52;100080.06;;;29.34;28.71
26859;BME280;14429;48.346;16.338;2023-07-08T11:15:22;100083.25;;;29.37;28.86
26859;BME280;14429;48.346;16.338;2023-07-08T11:17:51;100087.25;;;29.41;35.06
26859;BME280;14429;48.346;16.338;2023-07-08T11:20:23;100079.38;;;29.77;29.53
26859;BME280;14429;48.346;16.338;2023-07-08T11:22:54;100084.28;;;29.68;30.96
26859;BME280;14429;48.346;16.338;2023-07-08T11:25:24;100085.56;;;29.34;35.63
26859;BME280;14429;48.346;16.338;2023-07-08T11:27:53;100076.72;;;28.94;36.69
26859;BME280;14429;48.346;16.338;2023-07-08T11:30:22;100079.66;;;29.37;33.04
26859;BME280;14429;48.346;16.338;2023-07-08T11:32:56;100079.22;;;29.46;29.83
26859;BME280;14429;48.346;16.338;2023-07-08T11:35:29;100076.66;;;29.45;29.49
26859;BME280;14429;48.346;16.338;2023-07-08T11:37:57;100078.81;;;29.43;33.46
26859;BME280;14429;48.346;16.338;2023-07-08T11:40:23;100082.22;;;29.32;33.90
26859;BME280;14429;48.346;16.338;2023-07-08T11:42:51;100085.19;;;29.18;36.17
26859;BME280;14429;48.346;16.338;2023-07-08T11:45:25;100089.00;;;29.10;36.55
26859;BME280;14429;48.346;16.338;2023-07-08T11:47:52;100085.56;;;29.34;29.59
26859;BME280;14429;48.346;16.338;2023-07-08T11:50:21;100086.03;;;29.25;35.23
26859;BME280;14429;48.346;16.338;2023-07-08T11:52:51;100083.66;;;29.53;28.08
26859;BME280;14429;48.346;16.338;2023-07-08T11:55:23;100076.25;;;29.41;29.81
26859;BME280;14429;48.346;16.338;2023-07-08T11:57:53;100074.19;;;29.24;36.06
26859;BME280;14429;48.346;16.338;2023-07-08T12:00:22;100065.25;;;29.48;29.88
26859;BME280;14429;48.346;16.338;2023-07-08T12:02:51;100064.63;;;29.58;35.14
26859;BME280;14429;48.346;16.338;2023-07-08T12:05:17;100060.03;;;29.96;28.59
26859;BME280;14429;48.346;16.338;2023-07-08T12:07:55;100058.25;;;29.64;34.67
26859;BME280;14429;48.346;16.338;2023-07-08T12:10:27;100062.94;;;29.57;32.88
26859;BME280;14429;48.346;16.338;2023-07-08T12:12:53;100057.09;;;29.84;30.00
26859;BME280;14429;48.346;16.338;2023-07-08T12:15:22;100059.88;;;29.84;28.85
26859;BME280;14429;48.346;16.338;2023-07-08T12:17:50;100053.56;;;29.71;30.76
26859;BME280;14429;48.346;16.338;2023-07-08T12:20:19;100050.78;;;29.71;32.60
26859;BME280;14429;48.346;16.338;2023-07-08T12:22:47;100050.75;;;29.84;32.72
26859;BME280;14429;48.346;16.338;2023-07-08T12:25:14;100046.97;;;29.79;31.58
26859;BME280;14429;48.346;16.338;2023-07-08T12:27:41;100054.88;;;29.56;31.12
26859;BME280;14429;48.346;16.338;2023-07-08T12:30:09;100046.13;;;29.78;33.96
26859;BME280;14429;48.346;16.338;2023-07-08T12:32:34;100045.19;;;29.97;30.10
26859;BME280;14429;48.346;16.338;2023-07-08T12:35:00;100049.84;;;30.03;28.73
26859;BME280;14429;48.346;16.338;2023-07-08T12:37:25;100047.75;;;29.92;34.62
26859;BME280;14429;48.346;16.338;2023-07-08T12:39:55;100043.72;;;29.26;36.65
26859;BME280;14429;48.346;16.338;2023-07-08T12:42:20;100044.56;;;29.32;36.14